Aérodrome :
LOGIN :

S'inscrire | Disclaimer

   EN    FR    IT 

 










Légende :    VFR   VFR Marginal   IFR   IFR Intensif   IFR Très Intensif
Visi : 
Plafond : 
>= 8 km
>= 3000ft
5 à 8 km
1000 à 3000 ft
1500m à 5 km
500 à 1000 ft
800 à 1500m
200 à 500 ft
< 800m
< 200 ft
Symboles :   Orages  Brouillard  Fortes neiges  Fortes précipitations  Vent > 20 kt
SIGMETs :   Divers  Orages  Givrage  Turbulence  Onde Orograph.  Cendres Volcan.






- Altitude de l'aérodrome : 1768 ft


LEHC - Huesca Pirineos

DERNIER METAR :
  • 220430Z AUTO 09003KT 9999 BKN043 05/03 Q1005

METARs EXPIRÉS :
  • 220400Z AUTO VRB02KT 9999 SCT050 05/03 Q1005
  • 220330Z AUTO 08003KT 9999 FEW039 SCT048 05/03 Q1005
  • 220300Z AUTO 07002KT 9999 BKN043 05/03 Q1005
  • 220230Z AUTO 05003KT CAVOK 05/03 Q1006
  • 220200Z AUTO 04003KT 010V080 CAVOK 05/03 Q1006

TAF TAF LEHC
Valide du 22 à 03h jusqu'au 23 à 03h UTC


220200Z 2203/2303 VRB03KT 9999 SCT030 TX10/2213Z TN06/2206Z
BECMG 2209/2211 10014KT
TEMPO 2213/2223 4000 SHRA BKN010 BKN020TCU
PROB40
TEMPO 2220/2303 0500 BCFG
BECMG 2222/2224 VRB04KT



MET'MAP, la Météo Aéronautique d'un coup d'oeil ! - Copyright ORBIFLY Décembre 2007 - Disclaimer

ORBIFLY MET'MAP TEAM :

Programmation & Développement : Alexandra Zaïnal
Conception & Développement : Baudouin d'Aumeries
Co-Programmation & Développement : Marc-Olivier Méhu
Soutien technique & logistique : Manuel Goepfert

Contact : metmap@orbifly.com




SOURCES & CREDITS :

   NOAA